sensor_id;sensor_type;location;lat;lon;timestamp;P1;durP1;ratioP1;P2;durP2;ratioP2
17773;SDS011;9011;33.236;-97.118;2023-05-16T00:01:19;3.72;;;2.65;;
17773;SDS011;9011;33.236;-97.118;2023-05-16T00:03:51;6.38;;;2.90;;
17773;SDS011;9011;33.236;-97.118;2023-05-16T00:06:20;4.97;;;2.90;;
17773;SDS011;9011;33.236;-97.118;2023-05-16T00:08:48;5.90;;;3.00;;
17773;SDS011;9011;33.236;-97.118;2023-05-16T00:11:16;3.60;;;3.00;;
17773;SDS011;9011;33.236;-97.118;2023-05-16T00:13:46;4.32;;;3.05;;
17773;SDS011;9011;33.236;-97.118;2023-05-16T00:16:16;3.95;;;3.15;;
17773;SDS011;9011;33.236;-97.118;2023-05-16T00:18:46;6.68;;;2.80;;
17773;SDS011;9011;33.236;-97.118;2023-05-16T00:21:14;3.60;;;3.30;;
17773;SDS011;9011;33.236;-97.118;2023-05-16T00:23:42;3.60;;;3.22;;
17773;SDS011;9011;33.236;-97.118;2023-05-16T00:26:11;4.38;;;3.13;;
17773;SDS011;9011;33.236;-97.118;2023-05-16T00:28:39;4.95;;;3.88;;
17773;SDS011;9011;33.236;-97.118;2023-05-16T00:31:08;6.20;;;3.53;;
17773;SDS011;9011;33.236;-97.118;2023-05-16T00:33:38;5.18;;;3.58;;
17773;SDS011;9011;33.236;-97.118;2023-05-16T00:36:07;4.10;;;3.25;;
17773;SDS011;9011;33.236;-97.118;2023-05-16T00:38:35;4.45;;;3.20;;
17773;SDS011;9011;33.236;-97.118;2023-05-16T00:41:04;4.85;;;4.18;;
17773;SDS011;9011;33.236;-97.118;2023-05-16T00:43:32;3.60;;;3.10;;
17773;SDS011;9011;33.236;-97.118;2023-05-16T00:46:00;4.90;;;3.55;;
17773;SDS011;9011;33.236;-97.118;2023-05-16T00:48:29;4.47;;;3.40;;
17773;SDS011;9011;33.236;-97.118;2023-05-16T00:50:59;6.97;;;3.78;;
17773;SDS011;9011;33.236;-97.118;2023-05-16T00:53:28;6.75;;;3.30;;
17773;SDS011;9011;33.236;-97.118;2023-05-16T00:55:57;7.60;;;3.50;;
17773;SDS011;9011;33.236;-97.118;2023-05-16T00:58:26;3.58;;;3.10;;
17773;SDS011;9011;33.236;-97.118;2023-05-16T01:00:56;6.68;;;4.22;;
17773;SDS011;9011;33.236;-97.118;2023-05-16T01:03:26;5.65;;;3.42;;
17773;SDS011;9011;33.236;-97.118;2023-05-16T01:05:55;4.25;;;3.40;;
17773;SDS011;9011;33.236;-97.118;2023-05-16T01:08:26;4.97;;;3.67;;
17773;SDS011;9011;33.236;-97.118;2023-05-16T01:10:57;3.15;;;2.17;;
17773;SDS011;9011;33.236;-97.118;2023-05-16T01:13:35;4.22;;;2.47;;
17773;SDS011;9011;33.236;-97.118;2023-05-16T01:16:09;6.07;;;2.53;;
17773;SDS011;9011;33.236;-97.118;2023-05-16T01:18:50;6.25;;;2.15;;
17773;SDS011;9011;33.236;-97.118;2023-05-16T01:21:27;6.18;;;1.45;;
17773;SDS011;9011;33.236;-97.118;2023-05-16T01:24:12;10.77;;;2.33;;
17773;SDS011;9011;33.236;-97.118;2023-05-16T01:26:47;16.02;;;3.85;;
17773;SDS011;9011;33.236;-97.118;2023-05-16T01:29:18;7.07;;;2.78;;
17773;SDS011;9011;33.236;-97.118;2023-05-16T01:43:47;3.45;;;1.70;;
17773;SDS011;9011;33.236;-97.118;2023-05-16T01:46:19;5.03;;;1.70;;
17773;SDS011;9011;33.236;-97.118;2023-05-16T01:49:09;3.33;;;1.65;;
17773;SDS011;9011;33.236;-97.118;2023-05-16T01:51:48;4.72;;;1.80;;
17773;SDS011;9011;33.236;-97.118;2023-05-16T02:01:53;1.58;;;1.40;;
17773;SDS011;9011;33.236;-97.118;2023-05-16T02:22:40;2.38;;;1.80;;
17773;SDS011;9011;33.236;-97.118;2023-05-16T09:58:08;6.95;;;5.32;;
17773;SDS011;9011;33.236;-97.118;2023-05-16T10:49:43;6.13;;;5.53;;
17773;SDS011;9011;33.236;-97.118;2023-05-16T11:47:25;8.40;;;6.97;;
17773;SDS011;9011;33.236;-97.118;2023-05-16T11:49:56;7.90;;;7.10;;
17773;SDS011;9011;33.236;-97.118;2023-05-16T11:52:28;8.65;;;7.72;;
17773;SDS011;9011;33.236;-97.118;2023-05-16T11:55:00;8.20;;;7.40;;
17773;SDS011;9011;33.236;-97.118;2023-05-16T11:57:40;8.30;;;7.47;;
17773;SDS011;9011;33.236;-97.118;2023-05-16T12:00:13;9.25;;;7.18;;
17773;SDS011;9011;33.236;-97.118;2023-05-16T12:05:49;9.00;;;6.93;;
17773;SDS011;9011;33.236;-97.118;2023-05-16T12:08:22;9.00;;;7.75;;
17773;SDS011;9011;33.236;-97.118;2023-05-16T12:10:58;7.88;;;7.15;;
17773;SDS011;9011;33.236;-97.118;2023-05-16T12:13:28;7.03;;;6.43;;
17773;SDS011;9011;33.236;-97.118;2023-05-16T12:15:59;8.10;;;6.43;;
17773;SDS011;9011;33.236;-97.118;2023-05-16T12:18:39;9.80;;;6.88;;
17773;SDS011;9011;33.236;-97.118;2023-05-16T12:21:14;8.27;;;6.60;;
17773;SDS011;9011;33.236;-97.118;2023-05-16T12:23:42;7.80;;;7.03;;
17773;SDS011;9011;33.236;-97.118;2023-05-16T12:26:14;7.47;;;6.55;;
17773;SDS011;9011;33.236;-97.118;2023-05-16T12:29:00;7.75;;;6.60;;
17773;SDS011;9011;33.236;-97.118;2023-05-16T12:31:39;8.27;;;7.47;;
17773;SDS011;9011;33.236;-97.118;2023-05-16T12:34:21;10.50;;;7.72;;
17773;SDS011;9011;33.236;-97.118;2023-05-16T12:36:53;7.90;;;7.10;;
17773;SDS011;9011;33.236;-97.118;2023-05-16T12:39:38;7.00;;;6.30;;
17773;SDS011;9011;33.236;-97.118;2023-05-16T12:42:18;6.82;;;6.22;;
17773;SDS011;9011;33.236;-97.118;2023-05-16T12:44:46;8.52;;;7.72;;
17773;SDS011;9011;33.236;-97.118;2023-05-16T12:47:15;10.05;;;7.65;;
17773;SDS011;9011;33.236;-97.118;2023-05-16T12:49:45;7.53;;;6.82;;
17773;SDS011;9011;33.236;-97.118;2023-05-16T12:52:19;7.70;;;6.93;;
17773;SDS011;9011;33.236;-97.118;2023-05-16T12:54:48;8.98;;;7.22;;
17773;SDS011;9011;33.236;-97.118;2023-05-16T12:57:16;10.05;;;7.80;;
17773;SDS011;9011;33.236;-97.118;2023-05-16T12:59:45;8.10;;;7.32;;
17773;SDS011;9011;33.236;-97.118;2023-05-16T13:02:14;8.15;;;7.35;;
17773;SDS011;9011;33.236;-97.118;2023-05-16T13:04:47;8.40;;;7.60;;
17773;SDS011;9011;33.236;-97.118;2023-05-16T13:07:16;8.45;;;7.65;;
17773;SDS011;9011;33.236;-97.118;2023-05-16T13:09:45;7.82;;;7.03;;
17773;SDS011;9011;33.236;-97.118;2023-05-16T13:12:13;7.80;;;7.00;;
17773;SDS011;9011;33.236;-97.118;2023-05-16T13:14:42;8.40;;;7.60;;
17773;SDS011;9011;33.236;-97.118;2023-05-16T13:17:11;9.55;;;8.45;;
17773;SDS011;9011;33.236;-97.118;2023-05-16T13:19:39;9.27;;;7.70;;
17773;SDS011;9011;33.236;-97.118;2023-05-16T13:22:09;8.70;;;7.07;;
17773;SDS011;9011;33.236;-97.118;2023-05-16T13:24:38;7.38;;;6.32;;
17773;SDS011;9011;33.236;-97.118;2023-05-16T13:27:06;8.02;;;7.18;;
17773;SDS011;9011;33.236;-97.118;2023-05-16T13:29:35;7.43;;;6.65;;
17773;SDS011;9011;33.236;-97.118;2023-05-16T13:32:06;7.57;;;6.88;;
17773;SDS011;9011;33.236;-97.118;2023-05-16T13:34:34;7.72;;;6.97;;
17773;SDS011;9011;33.236;-97.118;2023-05-16T13:37:03;7.38;;;6.68;;
17773;SDS011;9011;33.236;-97.118;2023-05-16T13:39:33;8.95;;;7.72;;
17773;SDS011;9011;33.236;-97.118;2023-05-16T13:42:01;7.43;;;6.70;;
17773;SDS011;9011;33.236;-97.118;2023-05-16T13:44:30;8.65;;;6.93;;
17773;SDS011;9011;33.236;-97.118;2023-05-16T13:46:59;7.47;;;6.78;;
17773;SDS011;9011;33.236;-97.118;2023-05-16T13:49:27;6.88;;;5.95;;
17773;SDS011;9011;33.236;-97.118;2023-05-16T13:51:56;7.30;;;6.03;;
17773;SDS011;9011;33.236;-97.118;2023-05-16T13:54:26;6.90;;;6.20;;
17773;SDS011;9011;33.236;-97.118;2023-05-16T13:56:56;6.53;;;5.93;;
17773;SDS011;9011;33.236;-97.118;2023-05-16T13:59:24;5.88;;;5.30;;
17773;SDS011;9011;33.236;-97.118;2023-05-16T14:01:53;6.57;;;5.72;;
17773;SDS011;9011;33.236;-97.118;2023-05-16T14:04:22;5.50;;;5.00;;
17773;SDS011;9011;33.236;-97.118;2023-05-16T14:06:50;5.82;;;5.22;;
17773;SDS011;9011;33.236;-97.118;2023-05-16T14:09:19;6.53;;;5.93;;
17773;SDS011;9011;33.236;-97.118;2023-05-16T14:11:48;6.78;;;5.88;;
17773;SDS011;9011;33.236;-97.118;2023-05-16T14:14:18;6.03;;;5.45;;
17773;SDS011;9011;33.236;-97.118;2023-05-16T14:16:47;6.07;;;5.47;;
17773;SDS011;9011;33.236;-97.118;2023-05-16T14:19:15;5.30;;;4.90;;
17773;SDS011;9011;33.236;-97.118;2023-05-16T14:21:44;4.90;;;4.50;;
17773;SDS011;9011;33.236;-97.118;2023-05-16T14:24:12;5.43;;;4.93;;
17773;SDS011;9011;33.236;-97.118;2023-05-16T14:26:41;6.43;;;5.20;;
17773;SDS011;9011;33.236;-97.118;2023-05-16T14:29:10;4.63;;;4.18;;
17773;SDS011;9011;33.236;-97.118;2023-05-16T14:31:51;5.45;;;4.50;;
17773;SDS011;9011;33.236;-97.118;2023-05-16T14:34:27;4.32;;;3.92;;
17773;SDS011;9011;33.236;-97.118;2023-05-16T14:36:58;5.95;;;4.32;;
17773;SDS011;9011;33.236;-97.118;2023-05-16T14:39:27;6.63;;;4.80;;
17773;SDS011;9011;33.236;-97.118;2023-05-16T14:41:55;4.50;;;4.10;;
17773;SDS011;9011;33.236;-97.118;2023-05-16T14:44:24;3.97;;;3.67;;
17773;SDS011;9011;33.236;-97.118;2023-05-16T14:46:54;4.50;;;4.03;;
17773;SDS011;9011;33.236;-97.118;2023-05-16T14:49:23;4.68;;;4.22;;
17773;SDS011;9011;33.236;-97.118;2023-05-16T14:51:57;4.40;;;4.00;;
17773;SDS011;9011;33.236;-97.118;2023-05-16T14:54:26;3.88;;;3.40;;
17773;SDS011;9011;33.236;-97.118;2023-05-16T14:56:57;4.22;;;3.88;;
17773;SDS011;9011;33.236;-97.118;2023-05-16T14:59:30;4.55;;;4.18;;
17773;SDS011;9011;33.236;-97.118;2023-05-16T15:02:12;3.97;;;3.67;;
17773;SDS011;9011;33.236;-97.118;2023-05-16T15:04:59;3.70;;;3.40;;
17773;SDS011;9011;33.236;-97.118;2023-05-16T15:07:33;3.90;;;3.40;;
17773;SDS011;9011;33.236;-97.118;2023-05-16T15:10:02;4.50;;;4.10;;
17773;SDS011;9011;33.236;-97.118;2023-05-16T15:12:31;3.25;;;2.83;;
17773;SDS011;9011;33.236;-97.118;2023-05-16T15:14:59;4.93;;;3.45;;
17773;SDS011;9011;33.236;-97.118;2023-05-16T15:17:31;4.07;;;3.20;;
17773;SDS011;9011;33.236;-97.118;2023-05-16T15:20:00;4.03;;;3.67;;
17773;SDS011;9011;33.236;-97.118;2023-05-16T15:22:31;3.60;;;3.30;;
17773;SDS011;9011;33.236;-97.118;2023-05-16T15:24:59;3.70;;;3.33;;
17773;SDS011;9011;33.236;-97.118;2023-05-16T15:27:30;4.72;;;3.45;;
17773;SDS011;9011;33.236;-97.118;2023-05-16T15:29:58;3.60;;;3.30;;
17773;SDS011;9011;33.236;-97.118;2023-05-16T15:32:27;3.22;;;3.03;;
17773;SDS011;9011;33.236;-97.118;2023-05-16T15:34:59;3.05;;;2.85;;
17773;SDS011;9011;33.236;-97.118;2023-05-16T15:37:39;3.30;;;3.00;;
17773;SDS011;9011;33.236;-97.118;2023-05-16T15:40:09;2.72;;;2.53;;
17773;SDS011;9011;33.236;-97.118;2023-05-16T15:42:45;4.30;;;3.10;;
17773;SDS011;9011;33.236;-97.118;2023-05-16T15:45:19;3.40;;;3.05;;
17773;SDS011;9011;33.236;-97.118;2023-05-16T15:47:59;3.10;;;2.70;;
17773;SDS011;9011;33.236;-97.118;2023-05-16T15:50:31;2.65;;;2.45;;
17773;SDS011;9011;33.236;-97.118;2023-05-16T15:53:05;2.90;;;2.47;;
17773;SDS011;9011;33.236;-97.118;2023-05-16T15:55:36;3.50;;;2.75;;
17773;SDS011;9011;33.236;-97.118;2023-05-16T15:58:15;5.35;;;3.92;;
17773;SDS011;9011;33.236;-97.118;2023-05-16T16:00:58;2.78;;;2.58;;
17773;SDS011;9011;33.236;-97.118;2023-05-16T16:03:39;2.50;;;2.30;;
17773;SDS011;9011;33.236;-97.118;2023-05-16T16:09:20;4.30;;;2.40;;
17773;SDS011;9011;33.236;-97.118;2023-05-16T16:18:18;2.38;;;2.17;;
17773;SDS011;9011;33.236;-97.118;2023-05-16T16:21:05;2.55;;;2.35;;
17773;SDS011;9011;33.236;-97.118;2023-05-16T16:27:22;2.50;;;2.30;;
17773;SDS011;9011;33.236;-97.118;2023-05-16T16:29:37;2.17;;;1.98;;
17773;SDS011;9011;33.236;-97.118;2023-05-16T16:32:08;3.30;;;2.50;;
17773;SDS011;9011;33.236;-97.118;2023-05-16T16:34:37;2.40;;;2.00;;
17773;SDS011;9011;33.236;-97.118;2023-05-16T16:37:05;5.00;;;2.13;;
17773;SDS011;9011;33.236;-97.118;2023-05-16T16:39:36;3.53;;;2.05;;
17773;SDS011;9011;33.236;-97.118;2023-05-16T16:42:04;2.33;;;1.98;;
17773;SDS011;9011;33.236;-97.118;2023-05-16T16:44:42;2.78;;;2.08;;
17773;SDS011;9011;33.236;-97.118;2023-05-16T16:47:15;2.30;;;2.10;;
17773;SDS011;9011;33.236;-97.118;2023-05-16T16:49:46;3.70;;;2.22;;
17773;SDS011;9011;33.236;-97.118;2023-05-16T16:52:14;2.10;;;1.95;;
17773;SDS011;9011;33.236;-97.118;2023-05-16T16:54:48;4.18;;;2.20;;
17773;SDS011;9011;33.236;-97.118;2023-05-16T16:57:43;1.70;;;1.60;;
17773;SDS011;9011;33.236;-97.118;2023-05-16T17:00:19;1.95;;;1.80;;
17773;SDS011;9011;33.236;-97.118;2023-05-16T17:02:47;1.92;;;1.75;;
17773;SDS011;9011;33.236;-97.118;2023-05-16T17:05:32;2.85;;;2.20;;
17773;SDS011;9011;33.236;-97.118;2023-05-16T17:08:00;2.55;;;1.67;;
17773;SDS011;9011;33.236;-97.118;2023-05-16T17:10:30;1.98;;;1.42;;
17773;SDS011;9011;33.236;-97.118;2023-05-16T17:13:01;2.03;;;1.60;;
17773;SDS011;9011;33.236;-97.118;2023-05-16T17:15:31;3.65;;;1.92;;
17773;SDS011;9011;33.236;-97.118;2023-05-16T17:18:00;2.38;;;1.65;;
17773;SDS011;9011;33.236;-97.118;2023-05-16T17:20:29;1.52;;;1.42;;
17773;SDS011;9011;33.236;-97.118;2023-05-16T17:22:58;3.05;;;1.90;;
17773;SDS011;9011;33.236;-97.118;2023-05-16T17:25:27;1.42;;;1.33;;
17773;SDS011;9011;33.236;-97.118;2023-05-16T17:27:57;1.95;;;1.75;;
17773;SDS011;9011;33.236;-97.118;2023-05-16T17:30:27;2.90;;;1.88;;
17773;SDS011;9011;33.236;-97.118;2023-05-16T17:32:57;1.83;;;1.67;;
17773;SDS011;9011;33.236;-97.118;2023-05-16T17:35:26;2.53;;;1.73;;
17773;SDS011;9011;33.236;-97.118;2023-05-16T17:37:55;2.22;;;2.03;;
17773;SDS011;9011;33.236;-97.118;2023-05-16T17:40:23;1.90;;;1.80;;
17773;SDS011;9011;33.236;-97.118;2023-05-16T17:42:53;1.85;;;1.75;;
17773;SDS011;9011;33.236;-97.118;2023-05-16T17:48:40;2.15;;;2.00;;
17773;SDS011;9011;33.236;-97.118;2023-05-16T17:51:08;2.78;;;2.00;;
17773;SDS011;9011;33.236;-97.118;2023-05-16T17:53:45;3.53;;;1.70;;
17773;SDS011;9011;33.236;-97.118;2023-05-16T17:56:21;4.35;;;2.05;;
17773;SDS011;9011;33.236;-97.118;2023-05-16T17:58:50;2.08;;;1.92;;
17773;SDS011;9011;33.236;-97.118;2023-05-16T18:01:20;2.08;;;1.88;;
17773;SDS011;9011;33.236;-97.118;2023-05-16T18:03:57;1.92;;;1.83;;
17773;SDS011;9011;33.236;-97.118;2023-05-16T18:06:34;2.20;;;2.00;;
17773;SDS011;9011;33.236;-97.118;2023-05-16T18:09:06;2.10;;;1.90;;
17773;SDS011;9011;33.236;-97.118;2023-05-16T18:11:36;2.20;;;2.00;;
17773;SDS011;9011;33.236;-97.118;2023-05-16T18:14:06;3.42;;;2.15;;
17773;SDS011;9011;33.236;-97.118;2023-05-16T18:16:36;2.38;;;1.90;;
17773;SDS011;9011;33.236;-97.118;2023-05-16T18:19:08;2.15;;;1.95;;
17773;SDS011;9011;33.236;-97.118;2023-05-16T18:21:36;1.88;;;1.77;;
17773;SDS011;9011;33.236;-97.118;2023-05-16T18:24:05;3.78;;;2.00;;
17773;SDS011;9011;33.236;-97.118;2023-05-16T18:26:35;2.55;;;1.73;;
17773;SDS011;9011;33.236;-97.118;2023-05-16T18:29:04;2.17;;;1.98;;
17773;SDS011;9011;33.236;-97.118;2023-05-16T18:31:36;2.08;;;1.98;;
17773;SDS011;9011;33.236;-97.118;2023-05-16T18:34:06;2.00;;;1.90;;
17773;SDS011;9011;33.236;-97.118;2023-05-16T18:36:39;1.90;;;1.80;;
17773;SDS011;9011;33.236;-97.118;2023-05-16T18:39:08;2.25;;;2.05;;
17773;SDS011;9011;33.236;-97.118;2023-05-16T18:42:04;2.83;;;1.80;;
17773;SDS011;9011;33.236;-97.118;2023-05-16T18:44:49;1.77;;;1.67;;
17773;SDS011;9011;33.236;-97.118;2023-05-16T18:47:38;2.63;;;1.80;;
17773;SDS011;9011;33.236;-97.118;2023-05-16T18:50:17;1.92;;;1.73;;
17773;SDS011;9011;33.236;-97.118;2023-05-16T18:52:59;1.73;;;1.58;;
17773;SDS011;9011;33.236;-97.118;2023-05-16T18:55:30;2.17;;;1.98;;
17773;SDS011;9011;33.236;-97.118;2023-05-16T18:58:19;4.78;;;1.98;;
17773;SDS011;9011;33.236;-97.118;2023-05-16T19:00:58;1.85;;;1.75;;
17773;SDS011;9011;33.236;-97.118;2023-05-16T19:04:12;2.03;;;1.50;;
17773;SDS011;9011;33.236;-97.118;2023-05-16T19:06:42;2.08;;;1.95;;
17773;SDS011;9011;33.236;-97.118;2023-05-16T19:09:23;1.60;;;1.50;;
17773;SDS011;9011;33.236;-97.118;2023-05-16T19:12:04;2.10;;;2.00;;
17773;SDS011;9011;33.236;-97.118;2023-05-16T19:14:38;1.80;;;1.70;;
17773;SDS011;9011;33.236;-97.118;2023-05-16T19:17:08;2.10;;;2.00;;
17773;SDS011;9011;33.236;-97.118;2023-05-16T19:19:43;3.13;;;1.83;;
17773;SDS011;9011;33.236;-97.118;2023-05-16T19:22:25;2.03;;;1.85;;
17773;SDS011;9011;33.236;-97.118;2023-05-16T19:24:53;1.80;;;1.63;;
17773;SDS011;9011;33.236;-97.118;2023-05-16T19:27:22;1.63;;;1.52;;
17773;SDS011;9011;33.236;-97.118;2023-05-16T19:29:53;1.60;;;1.50;;
17773;SDS011;9011;33.236;-97.118;2023-05-16T19:32:25;1.50;;;1.40;;
17773;SDS011;9011;33.236;-97.118;2023-05-16T19:35:00;6.60;;;1.98;;
17773;SDS011;9011;33.236;-97.118;2023-05-16T19:37:45;17.50;;;2.75;;
17773;SDS011;9011;33.236;-97.118;2023-05-16T19:40:30;1.50;;;1.40;;
17773;SDS011;9011;33.236;-97.118;2023-05-16T19:43:23;3.05;;;1.88;;
17773;SDS011;9011;33.236;-97.118;2023-05-16T19:46:08;1.80;;;1.70;;
17773;SDS011;9011;33.236;-97.118;2023-05-16T19:48:51;2.00;;;1.70;;
17773;SDS011;9011;33.236;-97.118;2023-05-16T19:54:45;1.30;;;1.20;;
17773;SDS011;9011;33.236;-97.118;2023-05-16T19:57:21;1.80;;;1.55;;
17773;SDS011;9011;33.236;-97.118;2023-05-16T20:00:21;1.98;;;1.50;;
17773;SDS011;9011;33.236;-97.118;2023-05-16T20:05:58;1.60;;;1.50;;
17773;SDS011;9011;33.236;-97.118;2023-05-16T20:08:41;3.08;;;1.98;;
17773;SDS011;9011;33.236;-97.118;2023-05-16T20:11:28;3.33;;;1.63;;
17773;SDS011;9011;33.236;-97.118;2023-05-16T20:14:13;1.55;;;1.40;;
17773;SDS011;9011;33.236;-97.118;2023-05-16T20:16:46;1.65;;;1.55;;
17773;SDS011;9011;33.236;-97.118;2023-05-16T20:19:36;1.40;;;1.30;;
17773;SDS011;9011;33.236;-97.118;2023-05-16T20:22:08;8.68;;;1.70;;
17773;SDS011;9011;33.236;-97.118;2023-05-16T20:24:36;3.45;;;1.45;;
17773;SDS011;9011;33.236;-97.118;2023-05-16T20:27:06;1.65;;;1.40;;
17773;SDS011;9011;33.236;-97.118;2023-05-16T20:29:35;1.50;;;1.40;;
17773;SDS011;9011;33.236;-97.118;2023-05-16T20:32:04;1.40;;;1.30;;
17773;SDS011;9011;33.236;-97.118;2023-05-16T20:34:32;1.50;;;1.10;;
17773;SDS011;9011;33.236;-97.118;2023-05-16T20:37:01;1.42;;;1.33;;
17773;SDS011;9011;33.236;-97.118;2023-05-16T20:39:31;1.35;;;1.25;;
17773;SDS011;9011;33.236;-97.118;2023-05-16T20:42:00;3.63;;;1.25;;
17773;SDS011;9011;33.236;-97.118;2023-05-16T20:44:30;2.10;;;1.17;;
17773;SDS011;9011;33.236;-97.118;2023-05-16T20:47:01;2.90;;;1.38;;
17773;SDS011;9011;33.236;-97.118;2023-05-16T20:49:29;1.40;;;1.20;;
17773;SDS011;9011;33.236;-97.118;2023-05-16T20:52:00;2.28;;;1.50;;
17773;SDS011;9011;33.236;-97.118;2023-05-16T20:54:28;1.13;;;1.00;;
17773;SDS011;9011;33.236;-97.118;2023-05-16T20:56:57;0.95;;;0.95;;
17773;SDS011;9011;33.236;-97.118;2023-05-16T20:59:25;0.98;;;0.98;;
17773;SDS011;9011;33.236;-97.118;2023-05-16T21:01:56;1.23;;;1.13;;
17773;SDS011;9011;33.236;-97.118;2023-05-16T21:04:24;1.30;;;1.20;;
17773;SDS011;9011;33.236;-97.118;2023-05-16T21:06:52;1.63;;;1.20;;
17773;SDS011;9011;33.236;-97.118;2023-05-16T21:09:21;1.60;;;1.13;;
17773;SDS011;9011;33.236;-97.118;2023-05-16T21:11:49;1.92;;;1.10;;
17773;SDS011;9011;33.236;-97.118;2023-05-16T21:14:17;0.98;;;0.98;;
17773;SDS011;9011;33.236;-97.118;2023-05-16T21:16:46;1.15;;;1.05;;
17773;SDS011;9011;33.236;-97.118;2023-05-16T21:19:16;1.55;;;1.40;;
17773;SDS011;9011;33.236;-97.118;2023-05-16T21:21:48;1.13;;;1.10;;
17773;SDS011;9011;33.236;-97.118;2023-05-16T21:24:16;1.13;;;0.90;;
17773;SDS011;9011;33.236;-97.118;2023-05-16T21:26:45;4.85;;;1.33;;
17773;SDS011;9011;33.236;-97.118;2023-05-16T21:29:13;5.80;;;1.40;;
17773;SDS011;9011;33.236;-97.118;2023-05-16T21:31:41;2.50;;;1.23;;
17773;SDS011;9011;33.236;-97.118;2023-05-16T21:34:10;3.05;;;1.20;;
17773;SDS011;9011;33.236;-97.118;2023-05-16T21:36:40;1.08;;;1.00;;
17773;SDS011;9011;33.236;-97.118;2023-05-16T21:39:08;2.13;;;1.20;;
17773;SDS011;9011;33.236;-97.118;2023-05-16T21:41:37;1.35;;;1.23;;
17773;SDS011;9011;33.236;-97.118;2023-05-16T21:44:05;1.52;;;1.10;;
17773;SDS011;9011;33.236;-97.118;2023-05-16T21:46:33;1.45;;;1.10;;
17773;SDS011;9011;33.236;-97.118;2023-05-16T21:49:02;1.10;;;1.00;;
17773;SDS011;9011;33.236;-97.118;2023-05-16T21:51:30;1.13;;;0.95;;
17773;SDS011;9011;33.236;-97.118;2023-05-16T21:54:00;1.30;;;1.20;;
17773;SDS011;9011;33.236;-97.118;2023-05-16T21:56:31;1.33;;;1.13;;
17773;SDS011;9011;33.236;-97.118;2023-05-16T21:58:59;2.10;;;1.00;;
17773;SDS011;9011;33.236;-97.118;2023-05-16T22:01:28;1.23;;;1.13;;
17773;SDS011;9011;33.236;-97.118;2023-05-16T22:03:56;1.50;;;1.08;;
17773;SDS011;9011;33.236;-97.118;2023-05-16T22:06:25;2.22;;;1.13;;
17773;SDS011;9011;33.236;-97.118;2023-05-16T22:08:56;1.13;;;1.00;;
17773;SDS011;9011;33.236;-97.118;2023-05-16T22:11:27;1.40;;;1.30;;
17773;SDS011;9011;33.236;-97.118;2023-05-16T22:13:59;1.27;;;1.17;;
17773;SDS011;9011;33.236;-97.118;2023-05-16T22:16:28;1.30;;;1.20;;
17773;SDS011;9011;33.236;-97.118;2023-05-16T22:18:56;1.67;;;1.33;;
17773;SDS011;9011;33.236;-97.118;2023-05-16T22:21:28;1.08;;;1.00;;
17773;SDS011;9011;33.236;-97.118;2023-05-16T22:23:57;1.38;;;1.17;;
17773;SDS011;9011;33.236;-97.118;2023-05-16T22:26:27;1.13;;;1.10;;
17773;SDS011;9011;33.236;-97.118;2023-05-16T22:28:55;1.20;;;1.05;;
17773;SDS011;9011;33.236;-97.118;2023-05-16T22:31:23;3.40;;;1.20;;
17773;SDS011;9011;33.236;-97.118;2023-05-16T22:33:52;1.67;;;0.93;;
17773;SDS011;9011;33.236;-97.118;2023-05-16T22:36:20;1.77;;;0.90;;
17773;SDS011;9011;33.236;-97.118;2023-05-16T22:38:48;1.10;;;1.02;;
17773;SDS011;9011;33.236;-97.118;2023-05-16T22:41:17;4.95;;;1.35;;
17773;SDS011;9011;33.236;-97.118;2023-05-16T22:43:47;2.55;;;0.98;;
17773;SDS011;9011;33.236;-97.118;2023-05-16T22:46:15;1.25;;;0.88;;
17773;SDS011;9011;33.236;-97.118;2023-05-16T22:48:43;2.72;;;1.00;;
17773;SDS011;9011;33.236;-97.118;2023-05-16T22:51:12;1.70;;;1.05;;
17773;SDS011;9011;33.236;-97.118;2023-05-16T22:53:40;1.77;;;1.02;;
17773;SDS011;9011;33.236;-97.118;2023-05-16T22:56:09;2.42;;;1.20;;
17773;SDS011;9011;33.236;-97.118;2023-05-16T22:58:38;6.50;;;1.33;;
17773;SDS011;9011;33.236;-97.118;2023-05-16T23:01:08;1.15;;;1.05;;
17773;SDS011;9011;33.236;-97.118;2023-05-16T23:03:36;1.77;;;1.15;;
17773;SDS011;9011;33.236;-97.118;2023-05-16T23:06:05;1.30;;;1.20;;
17773;SDS011;9011;33.236;-97.118;2023-05-16T23:08:34;2.70;;;1.20;;
17773;SDS011;9011;33.236;-97.118;2023-05-16T23:11:02;2.25;;;1.10;;
17773;SDS011;9011;33.236;-97.118;2023-05-16T23:13:31;1.20;;;1.10;;
17773;SDS011;9011;33.236;-97.118;2023-05-16T23:16:02;0.90;;;0.90;;
17773;SDS011;9011;33.236;-97.118;2023-05-16T23:18:33;1.52;;;1.15;;
17773;SDS011;9011;33.236;-97.118;2023-05-16T23:21:01;1.15;;;1.00;;
17773;SDS011;9011;33.236;-97.118;2023-05-16T23:23:30;2.65;;;1.05;;
17773;SDS011;9011;33.236;-97.118;2023-05-16T23:26:02;1.48;;;1.38;;
17773;SDS011;9011;33.236;-97.118;2023-05-16T23:28:30;1.08;;;0.98;;
17773;SDS011;9011;33.236;-97.118;2023-05-16T23:30:59;2.08;;;1.05;;
17773;SDS011;9011;33.236;-97.118;2023-05-16T23:33:27;1.98;;;1.10;;
17773;SDS011;9011;33.236;-97.118;2023-05-16T23:35:57;1.35;;;0.95;;
17773;SDS011;9011;33.236;-97.118;2023-05-16T23:38:26;2.05;;;1.10;;
17773;SDS011;9011;33.236;-97.118;2023-05-16T23:40:54;2.72;;;0.93;;
17773;SDS011;9011;33.236;-97.118;2023-05-16T23:43:23;1.00;;;0.95;;
17773;SDS011;9011;33.236;-97.118;2023-05-16T23:45:51;2.30;;;0.95;;
17773;SDS011;9011;33.236;-97.118;2023-05-16T23:48:20;1.50;;;1.40;;
17773;SDS011;9011;33.236;-97.118;2023-05-16T23:50:48;1.60;;;1.50;;
17773;SDS011;9011;33.236;-97.118;2023-05-16T23:53:18;1.50;;;1.20;;
17773;SDS011;9011;33.236;-97.118;2023-05-16T23:55:52;1.20;;;1.08;;
17773;SDS011;9011;33.236;-97.118;2023-05-16T23:58:22;2.00;;;1.10;;
